Time;durP1;ratioP1;P1;durP2;ratioP2;P2;SDS_P1;SDS_P2;PMS_P1;PMS_P2;Temp;Humidity;BMP_temperature;BMP_pressure;BME280_temperature;BME280_humidity;BME280_pressure;Samples;Min_cycle;Max_cycle;Signal;HPM_P1;HPM_P2
2023/04/15 00:01:18;;;;;;;;;;;;;;;0.39;42.58;102407.69;10494820;28;19943;-76
2023/04/15 00:06:20;;;;;;;;;;;;;;;0.43;41.94;102417.97;10533956;28;19931;-78
2023/04/15 00:11:23;;;;;;;;;;;;;;;0.44;42.08;102416.13;10503418;28;19928;-78
2023/04/15 00:16:25;;;;;;;;;;;;;;;0.40;42.22;102417.47;10509581;28;19927;-78
2023/04/15 00:21:27;;;;;;;;;;;;;;;0.36;42.12;102416.16;10533739;28;19920;-79
2023/04/15 00:26:29;;;;;;;;;;;;;;;0.33;42.64;102409.19;10517933;28;19931;-78
2023/04/15 00:31:31;;;;;;;;;;;;;;;0.30;42.68;102415.78;10533851;28;19921;-77
2023/04/15 00:36:34;;;;;;;;;;;;;;;0.28;43.12;102427.78;10532795;28;20295;-79
2023/04/15 00:41:38;;;;;;;;;;;;;;;0.20;42.86;102431.34;10534055;28;19920;-78
2023/04/15 00:46:42;;;;;;;;;;;;;;;0.18;43.08;102425.25;10533698;28;19924;-78
2023/04/15 00:51:44;;;;;;;;;;;;;;;0.19;43.31;102434.22;10536522;28;19927;-76
2023/04/15 00:56:46;;;;;;;;;;;;;;;0.20;42.69;102436.72;10525237;28;19920;-79
2023/04/15 01:01:48;;;;;;;;;;;;;;;0.23;42.60;102428.28;10514910;28;19930;-79
2023/04/15 01:06:50;;;;;;;;;;;;;;;0.27;42.45;102434.19;10514574;28;20426;-79
2023/04/15 01:11:52;;;;;;;;;;;;;;;0.23;43.00;102428.28;10532408;28;20289;-78
2023/04/15 01:16:55;;;;;;;;;;;;;;;0.26;42.49;102438.75;10531755;28;19920;-78
2023/04/15 01:21:57;;;;;;;;;;;;;;;0.33;42.35;102420.00;10531683;28;20379;-79
2023/04/15 01:26:59;;;;;;;;;;;;;;;0.37;41.54;102434.88;10513726;28;19926;-78
2023/04/15 01:32:01;;;;;;;;;;;;;;;0.40;41.98;102426.44;10531456;28;19931;-78
2023/04/15 01:37:21;;;;;;;;;;;;;;;0.38;42.14;102441.13;10531169;28;20213;-78
2023/04/15 01:42:25;;;;;;;;;;;;;;;0.38;42.11;102424.91;10496482;28;19921;-78
2023/04/15 01:47:28;;;;;;;;;;;;;;;0.34;42.22;102426.25;10512851;28;19920;-77
2023/04/15 01:52:31;;;;;;;;;;;;;;;0.34;42.35;102412.75;10526646;28;20392;-78
2023/04/15 01:57:35;;;;;;;;;;;;;;;0.38;41.83;102427.63;10529228;28;20429;-78
2023/04/15 02:02:39;;;;;;;;;;;;;;;0.35;42.20;102426.09;10528922;28;19920;-78
2023/04/15 02:07:42;;;;;;;;;;;;;;;0.38;42.53;102417.66;10528295;28;19920;-78
2023/04/15 02:12:45;;;;;;;;;;;;;;;0.39;42.15;102435.53;10530246;28;19920;-78
2023/04/15 02:17:51;;;;;;;;;;;;;;;0.37;42.25;102445.69;10510474;28;19920;-78
2023/04/15 02:22:55;;;;;;;;;;;;;;;0.33;42.22;102435.34;10488542;28;19921;-78
2023/04/15 02:28:02;;;;;;;;;;;;;;;0.35;42.07;102433.31;10487777;28;19921;-78
2023/04/15 02:33:06;;;;;;;;;;;;;;;0.35;42.62;102436.03;10517683;28;20372;-78
2023/04/15 02:38:10;;;;;;;;;;;;;;;0.31;42.09;102435.53;10529153;28;19927;-78
2023/04/15 02:43:13;;;;;;;;;;;;;;;0.32;42.28;102437.22;10523994;28;19928;-78
2023/04/15 02:48:18;;;;;;;;;;;;;;;0.32;42.64;102442.63;10469637;28;20384;-78
2023/04/15 02:53:23;;;;;;;;;;;;;;;0.36;42.63;102437.75;10568910;28;19920;-78
2023/04/15 02:58:30;;;;;;;;;;;;;;;0.35;42.50;102436.91;10493587;28;19920;-78
2023/04/15 03:03:33;;;;;;;;;;;;;;;0.37;42.56;102437.56;10510285;28;19927;-77
2023/04/15 03:08:36;;;;;;;;;;;;;;;0.39;42.56;102437.41;10512071;28;19939;-77
2023/04/15 03:13:42;;;;;;;;;;;;;;;0.39;42.43;102453.59;10492092;28;19924;-77
2023/04/15 03:18:59;;;;;;;;;;;;;;;0.37;42.72;102447.53;10506410;28;19920;-77
2023/04/15 03:24:02;;;;;;;;;;;;;;;0.39;42.44;102446.34;10509936;28;19924;-79
2023/04/15 03:29:06;;;;;;;;;;;;;;;0.44;42.49;102440.44;10537042;28;19919;-79
2023/04/15 03:34:10;;;;;;;;;;;;;;;0.42;42.02;102453.25;10528670;28;19920;-79
2023/04/15 03:39:14;;;;;;;;;;;;;;;0.45;42.25;102447.50;10567939;28;19920;-78
2023/04/15 03:44:17;;;;;;;;;;;;;;;0.48;42.30;102456.09;10541879;28;19920;-78
2023/04/15 03:49:22;;;;;;;;;;;;;;;0.49;42.29;102460.50;10538513;28;19920;-76
2023/04/15 03:54:25;;;;;;;;;;;;;;;0.51;42.29;102457.63;10506432;28;19927;-78
2023/04/15 03:59:31;;;;;;;;;;;;;;;0.56;42.33;102456.13;10493698;28;19928;-78
2023/04/15 04:04:34;;;;;;;;;;;;;;;0.66;42.38;102455.06;10495995;28;19925;-78
2023/04/15 04:09:39;;;;;;;;;;;;;;;0.69;42.76;102460.97;10516293;28;20320;-78
2023/04/15 04:14:42;;;;;;;;;;;;;;;0.76;42.18;102466.56;10576987;28;19942;-78
2023/04/15 04:19:46;;;;;;;;;;;;;;;0.84;42.47;102467.38;10518636;28;19921;-77
2023/04/15 04:24:49;;;;;;;;;;;;;;;0.92;41.99;102466.53;10558060;28;20265;-78
2023/04/15 04:29:52;;;;;;;;;;;;;;;1.12;41.74;102466.97;10508359;28;19943;-78
2023/04/15 04:34:55;;;;;;;;;;;;;;;1.19;41.97;102481.47;10492196;28;19920;-78
2023/04/15 04:39:59;;;;;;;;;;;;;;;1.29;41.48;102471.28;10493014;28;20296;-78
2023/04/15 04:45:02;;;;;;;;;;;;;;;1.40;41.75;102476.34;10495679;28;19932;-78
2023/04/15 04:50:07;;;;;;;;;;;;;;;1.50;41.57;102481.50;10499771;28;19927;-78
2023/04/15 04:55:11;;;;;;;;;;;;;;;1.69;40.81;102472.13;10505653;28;19921;-78
2023/04/15 05:00:14;;;;;;;;;;;;;;;1.80;40.81;102479.84;10521451;28;19927;-78
2023/04/15 05:05:17;;;;;;;;;;;;;;;1.92;40.33;102485.69;10531747;28;19927;-78
2023/04/15 05:10:21;;;;;;;;;;;;;;;2.02;40.44;102473.59;10517713;28;19920;-78
2023/04/15 05:15:24;;;;;;;;;;;;;;;2.08;39.66;102480.16;10539166;28;19920;-78
2023/04/15 05:20:27;;;;;;;;;;;;;;;2.17;39.83;102473.66;10574085;28;19927;-78
2023/04/15 05:25:33;;;;;;;;;;;;;;;2.36;39.72;102489.44;10559259;28;19920;-77
2023/04/15 05:30:37;;;;;;;;;;;;;;;2.41;39.06;102480.75;10524277;28;19924;-77
2023/04/15 05:35:40;;;;;;;;;;;;;;;2.49;39.40;102480.69;10512957;28;19920;-79
2023/04/15 05:40:43;;;;;;;;;;;;;;;2.57;38.81;102480.59;10531859;28;19926;-79
2023/04/15 05:45:46;;;;;;;;;;;;;;;2.77;38.97;102482.78;10530832;28;19924;-76
2023/04/15 05:50:50;;;;;;;;;;;;;;;2.93;38.20;102483.47;10534039;28;19927;-78
2023/04/15 05:55:53;;;;;;;;;;;;;;;2.98;38.24;102489.19;10572403;28;20403;-78
2023/04/15 06:00:56;;;;;;;;;;;;;;;3.08;38.06;102482.66;10556403;28;19924;-79
2023/04/15 06:06:03;;;;;;;;;;;;;;;3.05;37.73;102488.44;10545009;28;19920;-78
2023/04/15 06:11:07;;;;;;;;;;;;;;;3.19;37.59;102502.03;10554525;28;19931;-78
2023/04/15 06:16:10;;;;;;;;;;;;;;;3.22;37.26;102503.50;10548884;28;19927;-78
2023/04/15 06:21:14;;;;;;;;;;;;;;;3.37;36.88;102489.94;10530163;28;19926;-78
2023/04/15 06:26:18;;;;;;;;;;;;;;;3.62;36.75;102492.16;10530666;28;19926;-78
2023/04/15 06:31:21;;;;;;;;;;;;;;;3.56;36.31;102494.78;10562066;28;19927;-78
2023/04/15 06:36:25;;;;;;;;;;;;;;;3.65;35.81;102488.25;10513071;28;20383;-79
2023/04/15 06:41:34;;;;;;;;;;;;;;;3.68;35.87;102512.28;10520533;28;19927;-79
2023/04/15 06:46:38;;;;;;;;;;;;;;;3.79;35.81;102495.47;10486449;28;19920;-79
2023/04/15 06:51:41;;;;;;;;;;;;;;;4.04;35.39;102487.84;10524243;28;19916;-79
2023/04/15 06:56:46;;;;;;;;;;;;;;;4.20;34.86;102484.88;10519423;28;20303;-79
2023/04/15 07:01:50;;;;;;;;;;;;;;;4.33;35.13;102480.59;10517942;28;19927;-79
2023/04/15 07:06:54;;;;;;;;;;;;;;;4.60;34.28;102495.28;10509610;28;20276;-78
2023/04/15 07:11:57;;;;;;;;;;;;;;;4.77;33.51;102489.34;10526812;28;19920;-79
2023/04/15 07:17:01;;;;;;;;;;;;;;;5.19;34.11;102489.41;10505645;28;19920;-79
2023/04/15 07:22:04;;;;;;;;;;;;;;;5.07;33.46;102500.03;10528236;28;19945;-78
2023/04/15 07:27:07;;;;;;;;;;;;;;;5.09;33.48;102495.22;10509840;28;19924;-78
2023/04/15 07:32:10;;;;;;;;;;;;;;;5.35;32.92;102500.81;10500757;28;20272;-78
2023/04/15 07:37:14;;;;;;;;;;;;;;;5.35;32.66;102494.53;10523239;28;19928;-80
2023/04/15 07:42:17;;;;;;;;;;;;;;;5.27;33.04;102492.00;10489506;28;19927;-80
2023/04/15 07:47:30;;;;;;;;;;;;;;;5.26;33.26;102501.19;10527690;28;20375;-79
2023/04/15 07:52:38;;;;;;;;;;;;;;;5.22;32.55;102506.22;10510462;28;19920;-79
2023/04/15 07:57:41;;;;;;;;;;;;;;;5.31;32.51;102505.00;10506872;28;19928;-80
2023/04/15 08:02:45;;;;;;;;;;;;;;;5.29;32.23;102517.13;10509763;28;20308;-79
2023/04/15 08:07:48;;;;;;;;;;;;;;;5.32;32.43;102509.41;10511151;28;19920;-80
2023/04/15 08:12:53;;;;;;;;;;;;;;;5.39;32.35;102501.28;10509115;28;19920;-79
2023/04/15 08:17:56;;;;;;;;;;;;;;;5.38;33.05;102499.56;10512783;28;20283;-78
2023/04/15 08:22:59;;;;;;;;;;;;;;;5.77;32.66;102496.22;10537795;28;19927;-79
2023/04/15 08:28:03;;;;;;;;;;;;;;;5.99;32.35;102488.75;10569283;28;19920;-79
2023/04/15 08:33:06;;;;;;;;;;;;;;;6.31;32.02;102485.28;10511552;28;19920;-79
2023/04/15 08:38:09;;;;;;;;;;;;;;;6.25;31.94;102490.72;10532376;28;19921;-81
2023/04/15 08:43:32;;;;;;;;;;;;;;;6.51;31.15;102482.56;10532120;28;20264;-83
2023/04/15 08:48:36;;;;;;;;;;;;;;;6.30;30.70;102491.78;10527878;28;19920;-81
2023/04/15 08:53:39;;;;;;;;;;;;;;;6.31;31.67;102490.72;10543703;28;19920;-81
2023/04/15 08:58:43;;;;;;;;;;;;;;;6.30;31.74;102489.03;10526502;28;19974;-80
2023/04/15 09:03:47;;;;;;;;;;;;;;;6.08;31.62;102473.09;10541336;28;19926;-83
2023/04/15 09:08:50;;;;;;;;;;;;;;;5.79;32.42;102490.56;10508714;28;19921;-80
2023/04/15 09:13:54;;;;;;;;;;;;;;;5.73;32.04;102487.63;10508811;28;19924;-81
2023/04/15 09:18:57;;;;;;;;;;;;;;;5.70;31.67;102474.38;10488886;28;20383;-80
2023/04/15 09:24:01;;;;;;;;;;;;;;;5.74;32.44;102478.41;10532561;28;19923;-82
2023/04/15 09:29:05;;;;;;;;;;;;;;;5.92;32.47;102472.41;10522694;28;20269;-83
2023/04/15 09:34:12;;;;;;;;;;;;;;;6.04;31.74;102472.63;10539581;28;19920;-80
2023/04/15 09:39:15;;;;;;;;;;;;;;;6.03;31.85;102460.88;10539918;28;19920;-80
2023/04/15 09:44:25;;;;;;;;;;;;;;;6.41;31.40;102456.75;10539956;28;19920;-80
2023/04/15 09:49:28;;;;;;;;;;;;;;;6.37;30.31;102471.84;10538664;28;19926;-79
2023/04/15 09:54:35;;;;;;;;;;;;;;;6.23;31.41;102465.53;10480844;28;19921;-79
2023/04/15 09:59:38;;;;;;;;;;;;;;;6.14;31.00;102461.34;10519647;28;20255;-80
2023/04/15 10:04:41;;;;;;;;;;;;;;;6.08;31.38;102468.47;10506699;28;20298;-81
2023/04/15 10:09:45;;;;;;;;;;;;;;;6.01;29.93;102481.22;10494156;28;19927;-80
2023/04/15 10:14:52;;;;;;;;;;;;;;;5.99;30.29;102480.59;10524826;28;19916;-81
2023/04/15 10:19:58;;;;;;;;;;;;;;;6.04;31.15;102478.06;10501485;28;19924;-79
2023/04/15 10:25:03;;;;;;;;;;;;;;;6.18;30.78;102468.06;10502649;28;19920;-80
2023/04/15 10:30:06;;;;;;;;;;;;;;;6.22;31.05;102461.97;10526173;28;19920;-79
2023/04/15 10:35:12;;;;;;;;;;;;;;;6.41;31.02;102467.66;10542623;28;19924;-83
2023/04/15 10:40:37;;;;;;;;;;;;;;;6.19;30.76;102477.91;10516850;28;19931;-80
2023/04/15 10:45:40;;;;;;;;;;;;;;;6.14;30.92;102473.09;10548166;28;20403;-81
2023/04/15 10:50:54;;;;;;;;;;;;;;;6.21;30.85;102476.66;10512990;28;19923;-81
2023/04/15 10:56:04;;;;;;;;;;;;;;;6.17;30.47;102459.03;10511200;28;19924;-79
2023/04/15 11:01:07;;;;;;;;;;;;;;;6.20;31.18;102455.06;10496731;28;19920;-79
2023/04/15 11:06:10;;;;;;;;;;;;;;;6.27;31.25;102443.13;10524487;28;19927;-80
2023/04/15 11:11:13;;;;;;;;;;;;;;;6.33;30.76;102453.19;10521275;28;19980;-81
2023/04/15 11:16:17;;;;;;;;;;;;;;;6.30;31.25;102448.16;10485407;28;19925;-79
2023/04/15 11:21:21;;;;;;;;;;;;;;;6.28;31.03;102461.16;10496329;28;19920;-79
2023/04/15 11:26:25;;;;;;;;;;;;;;;6.25;31.56;102434.31;10540105;28;20402;-79
2023/04/15 11:31:29;;;;;;;;;;;;;;;6.29;30.87;102432.84;10493955;28;20403;-79
2023/04/15 11:36:32;;;;;;;;;;;;;;;6.31;31.41;102446.25;10511152;28;19920;-80
2023/04/15 11:41:56;;;;;;;;;;;;;;;6.50;31.06;102439.97;10487564;28;20427;-80
2023/04/15 11:46:59;;;;;;;;;;;;;;;6.58;31.06;102425.28;10528648;28;19920;-80
2023/04/15 11:52:37;;;;;;;;;;;;;;;;;;;;;
2023/04/15 11:57:42;;;;;;;;;;;;;;;6.73;30.90;102425.06;10528330;28;19920;-79
2023/04/15 12:02:44;;;;;;;;;;;;;;;6.67;29.75;102429.47;10539194;28;19987;-80
2023/04/15 12:07:58;;;;;;;;;;;;;;;6.54;29.13;102427.59;10501968;28;19927;-80
2023/04/15 12:13:00;;;;;;;;;;;;;;;6.54;29.38;102413.94;10517894;28;19920;-81
2023/04/15 12:18:02;;;;;;;;;;;;;;;6.49;29.43;102405.56;10534717;28;19984;-80
2023/04/15 12:23:05;;;;;;;;;;;;;;;6.50;30.24;102417.31;10517370;28;19995;-78
2023/04/15 12:28:10;;;;;;;;;;;;;;;6.45;30.25;102411.66;10549654;28;19924;-79
2023/04/15 12:33:12;;;;;;;;;;;;;;;6.43;30.37;102406.44;10517256;28;19920;-79
2023/04/15 12:38:15;;;;;;;;;;;;;;;6.50;30.55;102415.44;10512147;28;19920;-79
2023/04/15 12:43:17;;;;;;;;;;;;;;;6.51;30.36;102389.84;10526842;28;19939;-79
2023/04/15 12:48:19;;;;;;;;;;;;;;;6.56;30.75;102386.47;10540948;28;19920;-80
2023/04/15 12:53:21;;;;;;;;;;;;;;;6.62;30.81;102388.38;10518194;28;20310;-78
2023/04/15 12:58:23;;;;;;;;;;;;;;;6.64;30.83;102389.00;10532129;28;19973;-78
2023/04/15 13:03:25;;;;;;;;;;;;;;;6.82;30.45;102383.72;10513590;28;19919;-78
2023/04/15 13:08:27;;;;;;;;;;;;;;;6.93;30.88;102374.84;10527768;28;19946;-79
2023/04/15 13:13:30;;;;;;;;;;;;;;;7.04;31.04;102377.97;10537188;28;20003;-78
2023/04/15 13:18:33;;;;;;;;;;;;;;;7.15;29.02;102374.56;10537793;28;19928;-78
2023/04/15 13:23:35;;;;;;;;;;;;;;;7.13;27.75;102377.53;10493097;28;19920;-78
2023/04/15 13:28:38;;;;;;;;;;;;;;;7.06;27.92;102363.03;10536637;28;19942;-77
2023/04/15 13:33:41;;;;;;;;;;;;;;;7.19;27.94;102356.72;10510979;28;20393;-79
2023/04/15 13:38:43;;;;;;;;;;;;;;;7.21;27.25;102360.06;10525756;28;19924;-79
2023/04/15 13:43:46;;;;;;;;;;;;;;;7.19;27.91;102364.91;10494313;28;20413;-77
2023/04/15 13:48:48;;;;;;;;;;;;;;;7.18;28.25;102361.31;10484758;28;19924;-77
2023/04/15 13:53:50;;;;;;;;;;;;;;;7.25;28.50;102350.38;10461981;28;19921;-78
2023/04/15 13:58:57;;;;;;;;;;;;;;;7.23;28.62;102347.03;10492912;28;20327;-78
2023/04/15 14:03:59;;;;;;;;;;;;;;;7.20;28.14;102337.38;10460409;28;20303;-79
2023/04/15 14:09:01;;;;;;;;;;;;;;;7.20;28.62;102348.28;10521492;28;19934;-79
2023/04/15 14:14:03;;;;;;;;;;;;;;;7.16;28.64;102336.13;10445099;28;20278;-79
2023/04/15 14:19:05;;;;;;;;;;;;;;;7.16;28.52;102335.31;10513083;28;19920;-77
2023/04/15 14:24:08;;;;;;;;;;;;;;;7.04;28.71;102331.56;10504512;28;19920;-78
2023/04/15 14:29:10;;;;;;;;;;;;;;;7.01;28.91;102330.09;10508018;28;19943;-78
2023/04/15 14:34:12;;;;;;;;;;;;;;;6.98;28.84;102326.97;10531081;28;19920;-78
2023/04/15 14:39:14;;;;;;;;;;;;;;;6.99;28.74;102332.22;10520269;28;20315;-79
2023/04/15 14:44:16;;;;;;;;;;;;;;;7.02;28.89;102320.03;10526146;28;19927;-78
2023/04/15 14:49:18;;;;;;;;;;;;;;;7.11;29.50;102315.97;10539716;28;19925;-78
2023/04/15 14:54:20;;;;;;;;;;;;;;;7.20;29.07;102325.63;10489574;28;19920;-79
2023/04/15 14:59:22;;;;;;;;;;;;;;;7.22;28.35;102328.97;10535578;28;19950;-78
2023/04/15 15:04:24;;;;;;;;;;;;;;;7.15;28.30;102320.81;10532611;28;19926;-78
2023/04/15 15:09:26;;;;;;;;;;;;;;;7.09;27.90;102313.47;10560075;28;19920;-78
2023/04/15 15:14:28;;;;;;;;;;;;;;;7.06;27.32;102318.53;10534265;28;19924;-79
2023/04/15 15:19:30;;;;;;;;;;;;;;;7.03;26.77;102335.34;10512861;28;19920;-77
2023/04/15 15:24:32;;;;;;;;;;;;;;;7.05;27.52;102305.94;10527294;28;19927;-78
2023/04/15 15:29:37;;;;;;;;;;;;;;;7.00;27.70;102311.22;10555373;28;19920;-78
2023/04/15 15:34:39;;;;;;;;;;;;;;;6.94;27.75;102305.59;10510316;28;19931;-78
2023/04/15 15:39:41;;;;;;;;;;;;;;;6.90;27.59;102301.59;10542510;28;20328;-78
2023/04/15 15:44:44;;;;;;;;;;;;;;;6.91;28.42;102314.19;10502671;28;19927;-78
2023/04/15 15:49:46;;;;;;;;;;;;;;;6.86;28.61;102324.06;10496870;28;19935;-79
2023/04/15 15:54:49;;;;;;;;;;;;;;;6.78;28.50;102322.44;10511165;28;19924;-79
2023/04/15 15:59:51;;;;;;;;;;;;;;;6.69;28.90;102318.25;10523678;28;19921;-78
2023/04/15 16:04:53;;;;;;;;;;;;;;;6.63;28.97;102324.56;10483641;28;19921;-77
2023/04/15 16:09:55;;;;;;;;;;;;;;;6.60;28.59;102328.56;10463072;28;19924;-77
2023/04/15 16:14:57;;;;;;;;;;;;;;;6.56;28.94;102323.72;10479072;28;20408;-77
2023/04/15 16:20:02;;;;;;;;;;;;;;;6.52;28.53;102334.25;10447200;28;20023;-77
2023/04/15 16:25:04;;;;;;;;;;;;;;;6.49;28.58;102333.84;10467768;28;20303;-77
2023/04/15 16:30:07;;;;;;;;;;;;;;;6.42;28.77;102330.25;10445721;28;19921;-77
2023/04/15 16:35:15;;;;;;;;;;;;;;;6.30;29.19;102336.38;10483401;28;19924;-76
2023/04/15 16:40:17;;;;;;;;;;;;;;;6.27;29.02;102339.53;10506923;28;19951;-78
2023/04/15 16:45:23;;;;;;;;;;;;;;;6.21;29.04;102336.78;10538212;28;20019;-78
2023/04/15 16:50:26;;;;;;;;;;;;;;;6.16;29.62;102340.16;10536331;28;19927;-77
2023/04/15 16:55:27;;;;;;;;;;;;;;;6.07;29.78;102338.66;10541186;28;19916;-78
2023/04/15 17:00:30;;;;;;;;;;;;;;;6.02;29.58;102335.75;10540205;28;20026;-77
2023/04/15 17:05:32;;;;;;;;;;;;;;;5.92;30.31;102333.47;10542734;28;20281;-76
2023/04/15 17:10:34;;;;;;;;;;;;;;;5.85;30.50;102318.09;10539378;28;19920;-77
2023/04/15 17:15:36;;;;;;;;;;;;;;;5.83;30.25;102331.94;10482783;28;19947;-77
2023/04/15 17:20:57;;;;;;;;;;;;;;;5.79;30.60;102316.22;10521344;28;19920;-78
2023/04/15 17:26:00;;;;;;;;;;;;;;;5.70;30.92;102323.75;10503128;28;20580;-79
2023/04/15 17:31:02;;;;;;;;;;;;;;;5.64;31.32;102335.47;10521737;28;19920;-77
2023/04/15 17:36:25;;;;;;;;;;;;;;;5.53;31.35;102334.19;10496040;28;19916;-77
2023/04/15 17:41:50;;;;;;;;;;;;;;;5.56;30.99;102331.06;10529746;28;20466;-77
2023/04/15 17:47:12;;;;;;;;;;;;;;;5.51;31.67;102330.00;10474922;28;19921;-77
2023/04/15 17:52:34;;;;;;;;;;;;;;;5.44;31.89;102338.16;10504788;28;19924;-77
2023/04/15 17:57:56;;;;;;;;;;;;;;;5.39;32.30;102346.13;10532176;28;20305;-76
2023/04/15 18:03:18;;;;;;;;;;;;;;;5.32;32.07;102342.50;10459861;28;19921;-77
2023/04/15 18:08:40;;;;;;;;;;;;;;;5.23;32.30;102343.75;10512533;28;19931;-78
2023/04/15 18:14:02;;;;;;;;;;;;;;;5.19;32.59;102346.03;10524963;28;19916;-77
2023/04/15 18:19:24;;;;;;;;;;;;;;;5.18;32.97;102347.06;10509859;28;19920;-78
2023/04/15 18:24:27;;;;;;;;;;;;;;;5.17;33.16;102344.56;10491774;28;19924;-79
2023/04/15 18:29:31;;;;;;;;;;;;;;;5.19;32.67;102350.63;10549869;28;19924;-78
2023/04/15 18:34:34;;;;;;;;;;;;;;;5.18;33.01;102357.94;10483548;28;19920;-77
2023/04/15 18:39:36;;;;;;;;;;;;;;;5.18;33.12;102354.38;10544248;28;19920;-76
2023/04/15 18:44:38;;;;;;;;;;;;;;;5.11;33.51;102351.66;10519787;28;19931;-79
2023/04/15 18:49:40;;;;;;;;;;;;;;;5.04;33.44;102358.97;10516367;28;19920;-78
2023/04/15 18:54:45;;;;;;;;;;;;;;;4.89;33.76;102360.97;10538734;28;19920;-78
2023/04/15 18:59:48;;;;;;;;;;;;;;;4.80;34.14;102355.69;10557696;28;19923;-78
2023/04/15 19:04:50;;;;;;;;;;;;;;;4.77;34.15;102352.53;10533167;28;19947;-79
2023/04/15 19:09:52;;;;;;;;;;;;;;;4.74;34.33;102353.78;10520424;28;20023;-78
2023/04/15 19:14:54;;;;;;;;;;;;;;;4.73;34.62;102362.13;10480501;28;19920;-78
2023/04/15 19:19:56;;;;;;;;;;;;;;;4.67;34.37;102358.31;10552767;28;20299;-78
2023/04/15 19:24:58;;;;;;;;;;;;;;;4.62;34.88;102368.13;10552774;28;19920;-80
2023/04/15 19:30:03;;;;;;;;;;;;;;;4.58;34.64;102358.69;10517910;28;19927;-79
2023/04/15 19:35:05;;;;;;;;;;;;;;;4.53;34.92;102362.84;10565236;28;20384;-79
2023/04/15 19:40:08;;;;;;;;;;;;;;;4.54;35.32;102358.25;10521243;28;19920;-79
2023/04/15 19:45:12;;;;;;;;;;;;;;;4.58;34.87;102367.69;10536180;28;19924;-79
2023/04/15 19:50:15;;;;;;;;;;;;;;;4.60;35.42;102362.88;10530193;28;20364;-78
2023/04/15 19:55:23;;;;;;;;;;;;;;;4.65;35.13;102362.28;10568785;28;20291;-79
2023/04/15 20:00:26;;;;;;;;;;;;;;;4.66;34.86;102359.38;10534152;28;20014;-78
2023/04/15 20:05:30;;;;;;;;;;;;;;;4.68;35.19;102354.56;10486358;28;20289;-80
2023/04/15 20:10:32;;;;;;;;;;;;;;;4.73;35.15;102362.13;10515308;28;19927;-79
2023/04/15 20:15:34;;;;;;;;;;;;;;;4.74;35.17;102350.22;10507206;28;19921;-79
2023/04/15 20:20:38;;;;;;;;;;;;;;;4.73;34.83;102356.69;10505035;28;19931;-79
2023/04/15 20:25:40;;;;;;;;;;;;;;;4.71;35.46;102348.75;10525566;28;20017;-80
2023/04/15 20:30:52;;;;;;;;;;;;;;;4.66;35.10;102358.53;10553053;28;19923;-79
2023/04/15 20:36:04;;;;;;;;;;;;;;;4.62;35.81;102352.66;10529720;28;19916;-80
2023/04/15 20:41:06;;;;;;;;;;;;;;;4.60;35.42;102353.91;10517835;28;19927;-79
2023/04/15 20:46:08;;;;;;;;;;;;;;;4.55;36.02;102357.22;10545168;28;20466;-79
2023/04/15 20:51:10;;;;;;;;;;;;;;;4.53;35.75;102349.28;10571288;28;20085;-80
2023/04/15 20:56:12;;;;;;;;;;;;;;;4.51;36.30;102350.47;10501802;28;20003;-79
2023/04/15 21:01:14;;;;;;;;;;;;;;;4.51;35.82;102345.03;10547407;28;20022;-79
2023/04/15 21:06:16;;;;;;;;;;;;;;;4.50;35.92;102346.91;10548509;28;19955;-79
2023/04/15 21:11:18;;;;;;;;;;;;;;;4.49;36.04;102350.69;10547887;28;19926;-80
2023/04/15 21:16:20;;;;;;;;;;;;;;;4.45;36.44;102357.56;10492748;28;20019;-78
2023/04/15 21:21:22;;;;;;;;;;;;;;;4.41;36.41;102356.28;10514576;28;20015;-79
2023/04/15 21:26:25;;;;;;;;;;;;;;;4.39;36.23;102342.06;10529829;28;20435;-80
2023/04/15 21:31:27;;;;;;;;;;;;;;;4.41;36.43;102353.56;10540389;28;19920;-83
2023/04/15 21:36:29;;;;;;;;;;;;;;;4.43;36.36;102358.81;10495484;28;19943;-83
2023/04/15 21:41:31;;;;;;;;;;;;;;;4.42;36.70;102354.41;10496758;28;19930;-85
2023/04/15 21:46:33;;;;;;;;;;;;;;;4.42;37.08;102351.69;10486069;28;19924;-81
2023/04/15 21:51:35;;;;;;;;;;;;;;;4.36;37.25;102361.47;10526755;28;19924;-82
2023/04/15 21:56:37;;;;;;;;;;;;;;;4.32;36.98;102352.03;10529274;28;19950;-78
2023/04/15 22:01:39;;;;;;;;;;;;;;;4.29;37.44;102359.72;10533822;28;19920;-77
2023/04/15 22:06:41;;;;;;;;;;;;;;;4.28;37.31;102356.19;10520045;28;20299;-78
2023/04/15 22:11:43;;;;;;;;;;;;;;;4.28;37.65;102355.34;10535533;28;19926;-80
2023/04/15 22:16:44;;;;;;;;;;;;;;;4.30;37.45;102364.97;10513655;28;19927;-78
2023/04/15 22:21:47;;;;;;;;;;;;;;;4.29;37.79;102357.03;10542925;28;19920;-78
2023/04/15 22:26:49;;;;;;;;;;;;;;;4.24;37.89;102353.03;10531358;28;19928;-78
2023/04/15 22:31:52;;;;;;;;;;;;;;;4.25;38.02;102359.28;10483298;28;19921;-78
2023/04/15 22:36:53;;;;;;;;;;;;;;;4.23;38.04;102355.94;10511080;28;20583;-80
2023/04/15 22:41:56;;;;;;;;;;;;;;;4.20;37.67;102354.47;10503401;28;20491;-80
2023/04/15 22:46:57;;;;;;;;;;;;;;;4.17;38.15;102354.84;10530995;28;19927;-80
2023/04/15 22:52:00;;;;;;;;;;;;;;;4.13;38.22;102342.69;10559839;28;19927;-80
2023/04/15 22:57:02;;;;;;;;;;;;;;;4.09;37.89;102341.41;10510571;28;20473;-79
2023/04/15 23:02:04;;;;;;;;;;;;;;;4.08;38.13;102350.59;10494368;28;19927;-80
2023/04/15 23:07:06;;;;;;;;;;;;;;;4.06;38.52;102349.13;10536722;28;19927;-80
2023/04/15 23:12:12;;;;;;;;;;;;;;;4.08;38.79;102360.63;10480538;28;19920;-79
2023/04/15 23:17:14;;;;;;;;;;;;;;;4.03;38.74;102347.63;10487646;28;20312;-79
2023/04/15 23:22:17;;;;;;;;;;;;;;;4.01;38.60;102343.44;10515570;28;20014;-80
2023/04/15 23:27:19;;;;;;;;;;;;;;;3.99;39.18;102340.03;10549404;28;19927;-80
2023/04/15 23:32:20;;;;;;;;;;;;;;;3.98;39.18;102341.94;10487205;28;19924;-80
2023/04/15 23:37:22;;;;;;;;;;;;;;;3.92;39.03;102340.00;10516961;28;20477;-80
2023/04/15 23:42:25;;;;;;;;;;;;;;;3.88;39.54;102339.56;10497412;28;19940;-80
2023/04/15 23:47:27;;;;;;;;;;;;;;;3.88;39.06;102338.72;10518499;28;20008;-80
2023/04/15 23:52:30;;;;;;;;;;;;;;;3.84;39.59;102335.56;10515401;28;19924;-80
2023/04/15 23:57:32;;;;;;;;;;;;;;;3.81;39.48;102338.63;10526283;28;19943;-80
